sensor_id;sensor_type;location;lat;lon;timestamp;pressure;altitude;pressure_sealevel;temperature;humidity
49583;BME280;36329;48.816;44.624;2023-04-01T00:02:46;101069;;;3.7;86.6
49583;BME280;36329;48.816;44.624;2023-04-01T00:05:48;101057;;;3.6;87.2
49583;BME280;36329;48.816;44.624;2023-04-01T00:08:50;101065;;;3.7;87.9
49583;BME280;36329;48.816;44.624;2023-04-01T00:11:52;101071;;;3.7;88
49583;BME280;36329;48.816;44.624;2023-04-01T00:14:54;101076;;;3.5;88.9
49583;BME280;36329;48.816;44.624;2023-04-01T00:17:57;101078;;;3.6;88.8
49583;BME280;36329;48.816;44.624;2023-04-01T00:20:59;101076;;;3.3;89.6
49583;BME280;36329;48.816;44.624;2023-04-01T00:24:01;101073;;;3.3;89.3
49583;BME280;36329;48.816;44.624;2023-04-01T00:27:02;101069;;;3.2;89
49583;BME280;36329;48.816;44.624;2023-04-01T00:30:05;101074;;;3.4;87.7
49583;BME280;36329;48.816;44.624;2023-04-01T00:33:07;101084;;;3.3;87.6
49583;BME280;36329;48.816;44.624;2023-04-01T00:36:10;101096;;;3.2;87
49583;BME280;36329;48.816;44.624;2023-04-01T00:39:12;101107;;;3.1;87.4
49583;BME280;36329;48.816;44.624;2023-04-01T00:42:14;101111;;;2.9;88.7
49583;BME280;36329;48.816;44.624;2023-04-01T00:45:27;101100;;;3;88.1
49583;BME280;36329;48.816;44.624;2023-04-01T00:48:32;101103;;;3.1;88.2
49583;BME280;36329;48.816;44.624;2023-04-01T00:51:36;101102;;;3.2;87.1
49583;BME280;36329;48.816;44.624;2023-04-01T00:54:40;101109;;;3.5;85.9
49583;BME280;36329;48.816;44.624;2023-04-01T00:57:44;101117;;;3.3;86.7
49583;BME280;36329;48.816;44.624;2023-04-01T01:00:48;101129;;;3.2;86.5
49583;BME280;36329;48.816;44.624;2023-04-01T01:03:52;101126;;;3.2;86.9
49583;BME280;36329;48.816;44.624;2023-04-01T01:06:59;101131;;;3.2;86.7
49583;BME280;36329;48.816;44.624;2023-04-01T01:10:10;101132;;;3.1;87.6
49583;BME280;36329;48.816;44.624;2023-04-01T01:13:17;101126;;;3.1;87.4
49583;BME280;36329;48.816;44.624;2023-04-01T01:16:26;101116;;;3.4;86.9
49583;BME280;36329;48.816;44.624;2023-04-01T01:19:42;101111;;;3.4;86.1
49583;BME280;36329;48.816;44.624;2023-04-01T01:23:12;101101;;;3.4;86.7
49583;BME280;36329;48.816;44.624;2023-04-01T01:26:34;101105;;;3.4;86.6
49583;BME280;36329;48.816;44.624;2023-04-01T01:29:50;101101;;;3.6;86.1
49583;BME280;36329;48.816;44.624;2023-04-01T01:33:05;101100;;;3.8;85.5
49583;BME280;36329;48.816;44.624;2023-04-01T01:36:11;101105;;;3.6;85.8
49583;BME280;36329;48.816;44.624;2023-04-01T01:39:16;101108;;;3.6;86.6
49583;BME280;36329;48.816;44.624;2023-04-01T01:42:20;101108;;;3.5;86.8
49583;BME280;36329;48.816;44.624;2023-04-01T01:45:26;101109;;;2.8;89.3
49583;BME280;36329;48.816;44.624;2023-04-01T01:48:29;101113;;;2.9;90.1
49583;BME280;36329;48.816;44.624;2023-04-01T01:51:33;101108;;;3;89.8
49583;BME280;36329;48.816;44.624;2023-04-01T01:54:35;101106;;;3;89.5
49583;BME280;36329;48.816;44.624;2023-04-01T01:57:37;101107;;;3.3;88.3
49583;BME280;36329;48.816;44.624;2023-04-01T02:00:41;101107;;;3.2;88.5
49583;BME280;36329;48.816;44.624;2023-04-01T02:03:45;101101;;;3.3;87.7
49583;BME280;36329;48.816;44.624;2023-04-01T02:06:53;101112;;;3.2;87.5
49583;BME280;36329;48.816;44.624;2023-04-01T02:09:58;101113;;;3.3;87.7
49583;BME280;36329;48.816;44.624;2023-04-01T02:13:05;101121;;;3.3;87.6
49583;BME280;36329;48.816;44.624;2023-04-01T02:16:13;101131;;;3.2;87.6
49583;BME280;36329;48.816;44.624;2023-04-01T02:19:17;101138;;;3.1;88.5
49583;BME280;36329;48.816;44.624;2023-04-01T02:22:21;101137;;;3.1;88.7
49583;BME280;36329;48.816;44.624;2023-04-01T02:25:28;101151;;;3.5;87.7
49583;BME280;36329;48.816;44.624;2023-04-01T02:28:31;101146;;;3.7;85.6
49583;BME280;36329;48.816;44.624;2023-04-01T02:31:35;101144;;;3.7;86
49583;BME280;36329;48.816;44.624;2023-04-01T02:34:38;101140;;;3.8;85.6
49583;BME280;36329;48.816;44.624;2023-04-01T02:37:40;101143;;;4;84.5
49583;BME280;36329;48.816;44.624;2023-04-01T02:40:46;101148;;;3.9;84.4
49583;BME280;36329;48.816;44.624;2023-04-01T02:43:48;101152;;;3.7;84.7
49583;BME280;36329;48.816;44.624;2023-04-01T02:46:50;101158;;;3.9;85.4
49583;BME280;36329;48.816;44.624;2023-04-01T02:49:52;101158;;;3.7;85
49583;BME280;36329;48.816;44.624;2023-04-01T02:52:54;101160;;;3.5;85.1
49583;BME280;36329;48.816;44.624;2023-04-01T02:55:56;101153;;;3.5;86.1
49583;BME280;36329;48.816;44.624;2023-04-01T02:58:58;101160;;;3.8;85
49583;BME280;36329;48.816;44.624;2023-04-01T03:02:00;101157;;;4.1;83.8
49583;BME280;36329;48.816;44.624;2023-04-01T03:05:02;101156;;;4.1;82.8
49583;BME280;36329;48.816;44.624;2023-04-01T03:08:04;101148;;;4;83.5
49583;BME280;36329;48.816;44.624;2023-04-01T03:11:06;101149;;;4;83.3
49583;BME280;36329;48.816;44.624;2023-04-01T03:14:08;101143;;;4;83.7
49583;BME280;36329;48.816;44.624;2023-04-01T03:17:10;101141;;;4;83.8
49583;BME280;36329;48.816;44.624;2023-04-01T03:20:13;101151;;;3.7;83.7
49583;BME280;36329;48.816;44.624;2023-04-01T03:23:16;101143;;;3.6;84.9
49583;BME280;36329;48.816;44.624;2023-04-01T03:26:19;101142;;;3.7;85.1
49583;BME280;36329;48.816;44.624;2023-04-01T03:29:21;101147;;;3.8;84.1
49583;BME280;36329;48.816;44.624;2023-04-01T03:32:23;101161;;;3.8;84.3
49583;BME280;36329;48.816;44.624;2023-04-01T03:35:25;101163;;;3.6;84.9
49583;BME280;36329;48.816;44.624;2023-04-01T03:38:27;101167;;;3.3;86.6
49583;BME280;36329;48.816;44.624;2023-04-01T03:41:29;101170;;;2.8;88
49583;BME280;36329;48.816;44.624;2023-04-01T03:44:31;101183;;;3.1;87.9
49583;BME280;36329;48.816;44.624;2023-04-01T03:47:33;101177;;;3;88.5
49583;BME280;36329;48.816;44.624;2023-04-01T03:50:35;101178;;;2.8;89.1
49583;BME280;36329;48.816;44.624;2023-04-01T03:53:37;101184;;;2.9;88.7
49583;BME280;36329;48.816;44.624;2023-04-01T03:56:39;101190;;;3.1;87.2
49583;BME280;36329;48.816;44.624;2023-04-01T03:59:41;101198;;;2.9;87.6
49583;BME280;36329;48.816;44.624;2023-04-01T04:02:44;101196;;;2.8;88.4
49583;BME280;36329;48.816;44.624;2023-04-01T04:05:46;101196;;;3;88.2
49583;BME280;36329;48.816;44.624;2023-04-01T04:08:48;101193;;;3.2;87.7
49583;BME280;36329;48.816;44.624;2023-04-01T04:11:50;101188;;;3.2;87
49583;BME280;36329;48.816;44.624;2023-04-01T04:14:52;101189;;;3.3;86.5
49583;BME280;36329;48.816;44.624;2023-04-01T04:17:54;101188;;;3.3;87
49583;BME280;36329;48.816;44.624;2023-04-01T04:20:56;101183;;;3.7;86.2
49583;BME280;36329;48.816;44.624;2023-04-01T04:23:58;101192;;;4;84.2
49583;BME280;36329;48.816;44.624;2023-04-01T04:27:01;101201;;;4.4;83
49583;BME280;36329;48.816;44.624;2023-04-01T04:30:05;101209;;;4.6;81.7
49583;BME280;36329;48.816;44.624;2023-04-01T04:33:07;101206;;;4.8;81.3
49583;BME280;36329;48.816;44.624;2023-04-01T04:36:09;101205;;;5;81.3
49583;BME280;36329;48.816;44.624;2023-04-01T04:39:11;101208;;;5.1;79.5
49583;BME280;36329;48.816;44.624;2023-04-01T04:42:13;101208;;;5.4;77.7
49583;BME280;36329;48.816;44.624;2023-04-01T04:45:15;101210;;;5.3;77.4
49583;BME280;36329;48.816;44.624;2023-04-01T04:48:17;101209;;;5.3;79.7
49583;BME280;36329;48.816;44.624;2023-04-01T04:51:20;101211;;;5.5;79.2
49583;BME280;36329;48.816;44.624;2023-04-01T04:54:22;101215;;;5.8;78.1
49583;BME280;36329;48.816;44.624;2023-04-01T04:57:23;101223;;;6.2;77.1
49583;BME280;36329;48.816;44.624;2023-04-01T05:00:25;101220;;;6;76.6
49583;BME280;36329;48.816;44.624;2023-04-01T05:03:27;101222;;;6.4;76.2
49583;BME280;36329;48.816;44.624;2023-04-01T05:06:29;101216;;;6.8;74.9
49583;BME280;36329;48.816;44.624;2023-04-01T05:09:31;101218;;;7;73.6
49583;BME280;36329;48.816;44.624;2023-04-01T05:12:33;101208;;;7.1;73.2
49583;BME280;36329;48.816;44.624;2023-04-01T05:15:35;101208;;;7.2;73.5
49583;BME280;36329;48.816;44.624;2023-04-01T05:18:38;101207;;;7.3;74.6
49583;BME280;36329;48.816;44.624;2023-04-01T05:21:40;101206;;;7.6;74.2
49583;BME280;36329;48.816;44.624;2023-04-01T05:24:41;101221;;;7.9;76.4
49583;BME280;36329;48.816;44.624;2023-04-01T05:27:43;101222;;;8.3;73.3
49583;BME280;36329;48.816;44.624;2023-04-01T05:30:46;101219;;;8.4;73.3
49583;BME280;36329;48.816;44.624;2023-04-01T05:33:48;101224;;;8.6;72.7
49583;BME280;36329;48.816;44.624;2023-04-01T05:36:50;101216;;;8.9;71.5
49583;BME280;36329;48.816;44.624;2023-04-01T05:39:51;101222;;;9.1;70.2
49583;BME280;36329;48.816;44.624;2023-04-01T05:42:53;101230;;;9.5;68.2
49583;BME280;36329;48.816;44.624;2023-04-01T05:45:55;101238;;;9.6;68.2
49583;BME280;36329;48.816;44.624;2023-04-01T05:48:57;101240;;;9.3;67.1
49583;BME280;36329;48.816;44.624;2023-04-01T05:51:59;101240;;;9.4;68.5
49583;BME280;36329;48.816;44.624;2023-04-01T05:55:01;101240;;;9.5;67.7
49583;BME280;36329;48.816;44.624;2023-04-01T05:58:05;101241;;;9.7;66.3
49583;BME280;36329;48.816;44.624;2023-04-01T06:01:09;101239;;;9.9;66.1
49583;BME280;36329;48.816;44.624;2023-04-01T06:04:13;101228;;;10.1;65.9
49583;BME280;36329;48.816;44.624;2023-04-01T06:07:17;101230;;;10.4;62.8
49583;BME280;36329;48.816;44.624;2023-04-01T06:10:21;101235;;;10.6;61.9
49583;BME280;36329;48.816;44.624;2023-04-01T06:13:36;101238;;;10.7;60.1
49583;BME280;36329;48.816;44.624;2023-04-01T06:16:51;101245;;;11.1;61
49583;BME280;36329;48.816;44.624;2023-04-01T06:20:00;101245;;;11.5;58.6
49583;BME280;36329;48.816;44.624;2023-04-01T06:23:18;101236;;;11.7;58.1
49583;BME280;36329;48.816;44.624;2023-04-01T06:26:29;101227;;;12.1;56.2
49583;BME280;36329;48.816;44.624;2023-04-01T06:29:42;101227;;;12.4;56.5
49583;BME280;36329;48.816;44.624;2023-04-01T06:32:59;101243;;;12.8;54.5
49583;BME280;36329;48.816;44.624;2023-04-01T06:36:23;101256;;;12.9;51.9
49583;BME280;36329;48.816;44.624;2023-04-01T06:39:39;101268;;;12.2;53
49583;BME280;36329;48.816;44.624;2023-04-01T06:42:53;101261;;;12.5;52.6
49583;BME280;36329;48.816;44.624;2023-04-01T06:46:04;101237;;;12.8;50.5
49583;BME280;36329;48.816;44.624;2023-04-01T06:49:28;101224;;;12.8;49.9
49583;BME280;36329;48.816;44.624;2023-04-01T06:52:40;101234;;;13.1;50.7
49583;BME280;36329;48.816;44.624;2023-04-01T06:55:47;101236;;;13.3;48.1
49583;BME280;36329;48.816;44.624;2023-04-01T06:58:53;101220;;;13.2;48.5
49583;BME280;36329;48.816;44.624;2023-04-01T07:01:59;101201;;;13.6;46.8
49583;BME280;36329;48.816;44.624;2023-04-01T07:05:06;101208;;;13.4;47.4
49583;BME280;36329;48.816;44.624;2023-04-01T07:08:10;101214;;;13.8;46.6
49583;BME280;36329;48.816;44.624;2023-04-01T07:11:21;101194;;;14.1;46.9
49583;BME280;36329;48.816;44.624;2023-04-01T07:14:30;101199;;;14.2;46.4
49583;BME280;36329;48.816;44.624;2023-04-01T07:17:36;101207;;;14.5;45.5
49583;BME280;36329;48.816;44.624;2023-04-01T07:20:41;101203;;;13.1;47.7
49583;BME280;36329;48.816;44.624;2023-04-01T07:23:45;101200;;;13.6;48
49583;BME280;36329;48.816;44.624;2023-04-01T07:26:53;101198;;;13.4;47
49583;BME280;36329;48.816;44.624;2023-04-01T07:29:56;101197;;;14.1;46.3
49583;BME280;36329;48.816;44.624;2023-04-01T07:33:01;101211;;;14.8;44.1
49583;BME280;36329;48.816;44.624;2023-04-01T07:36:12;101196;;;15.6;40.2
49583;BME280;36329;48.816;44.624;2023-04-01T07:39:24;101198;;;15.8;39.2
49583;BME280;36329;48.816;44.624;2023-04-01T07:42:38;101195;;;15.8;32.3
49583;BME280;36329;48.816;44.624;2023-04-01T07:45:52;101201;;;15.8;32.9
49583;BME280;36329;48.816;44.624;2023-04-01T07:48:59;101187;;;16.2;31.6
49583;BME280;36329;48.816;44.624;2023-04-01T07:52:07;101191;;;16.6;32.1
49583;BME280;36329;48.816;44.624;2023-04-01T07:55:19;101169;;;16.7;32.3
49583;BME280;36329;48.816;44.624;2023-04-01T07:58:29;101184;;;17;31.9
49583;BME280;36329;48.816;44.624;2023-04-01T08:01:39;101176;;;17.3;32.4
49583;BME280;36329;48.816;44.624;2023-04-01T08:04:52;101166;;;17;30.5
49583;BME280;36329;48.816;44.624;2023-04-01T08:08:03;101172;;;17.4;31.3
49583;BME280;36329;48.816;44.624;2023-04-01T08:11:14;101180;;;15.7;29.5
49583;BME280;36329;48.816;44.624;2023-04-01T08:14:29;101176;;;16.5;29.8
49583;BME280;36329;48.816;44.624;2023-04-01T08:17:40;101169;;;16.6;30.8
49583;BME280;36329;48.816;44.624;2023-04-01T08:20:50;101164;;;17.3;30.1
49583;BME280;36329;48.816;44.624;2023-04-01T08:23:56;101158;;;17;29.5
49583;BME280;36329;48.816;44.624;2023-04-01T08:27:03;101165;;;16.3;30.7
49583;BME280;36329;48.816;44.624;2023-04-01T08:30:17;101162;;;16.9;31.9
49583;BME280;36329;48.816;44.624;2023-04-01T08:33:24;101178;;;17.4;30.3
49583;BME280;36329;48.816;44.624;2023-04-01T08:36:29;101186;;;17.5;28.3
49583;BME280;36329;48.816;44.624;2023-04-01T08:39:36;101178;;;17.9;30.1
49583;BME280;36329;48.816;44.624;2023-04-01T08:42:49;101187;;;18.2;28.4
49583;BME280;36329;48.816;44.624;2023-04-01T08:46:05;101186;;;18.3;28.2
49583;BME280;36329;48.816;44.624;2023-04-01T08:49:17;101184;;;18.1;28.7
49583;BME280;36329;48.816;44.624;2023-04-01T08:52:30;101187;;;18.6;27.2
49583;BME280;36329;48.816;44.624;2023-04-01T08:55:40;101184;;;17.8;27.4
49583;BME280;36329;48.816;44.624;2023-04-01T08:58:59;101191;;;18.4;27.4
49583;BME280;36329;48.816;44.624;2023-04-01T09:02:16;101201;;;18.2;26.9
49583;BME280;36329;48.816;44.624;2023-04-01T09:05:29;101203;;;18.5;26.6
49583;BME280;36329;48.816;44.624;2023-04-01T09:08:48;101206;;;18.5;26.8
49583;BME280;36329;48.816;44.624;2023-04-01T09:12:06;101219;;;18.2;26.5
49583;BME280;36329;48.816;44.624;2023-04-01T09:15:20;101224;;;17.9;27.7
49583;BME280;36329;48.816;44.624;2023-04-01T09:18:36;101228;;;17.8;27.9
49583;BME280;36329;48.816;44.624;2023-04-01T09:21:50;101232;;;16.4;28.9
49583;BME280;36329;48.816;44.624;2023-04-01T09:25:06;101230;;;17.5;29.7
49583;BME280;36329;48.816;44.624;2023-04-01T09:28:19;101229;;;18.2;28.3
49583;BME280;36329;48.816;44.624;2023-04-01T09:31:32;101227;;;18.3;27
49583;BME280;36329;48.816;44.624;2023-04-01T09:34:51;101228;;;17.8;27.2
49583;BME280;36329;48.816;44.624;2023-04-01T09:38:05;101227;;;17.9;27.5
49583;BME280;36329;48.816;44.624;2023-04-01T09:41:23;101217;;;18.1;27.3
49583;BME280;36329;48.816;44.624;2023-04-01T09:44:34;101214;;;18;27.3
49583;BME280;36329;48.816;44.624;2023-04-01T09:47:45;101222;;;17.6;27.6
49583;BME280;36329;48.816;44.624;2023-04-01T09:51:00;101217;;;18.1;27.4
49583;BME280;36329;48.816;44.624;2023-04-01T09:54:13;101215;;;18.4;27.3
49583;BME280;36329;48.816;44.624;2023-04-01T09:57:40;101199;;;17.9;27
49583;BME280;36329;48.816;44.624;2023-04-01T10:01:15;101203;;;17.6;27.4
49583;BME280;36329;48.816;44.624;2023-04-01T10:04:39;101207;;;17.5;27.4
49583;BME280;36329;48.816;44.624;2023-04-01T10:07:55;101195;;;17.3;27.1
49583;BME280;36329;48.816;44.624;2023-04-01T10:11:13;101198;;;16.3;28.1
49583;BME280;36329;48.816;44.624;2023-04-01T10:14:34;101196;;;17;28.5
49583;BME280;36329;48.816;44.624;2023-04-01T10:17:58;101191;;;17.4;28.6
49583;BME280;36329;48.816;44.624;2023-04-01T10:21:21;101183;;;17.8;28.4
49583;BME280;36329;48.816;44.624;2023-04-01T10:28:10;101179;;;17.8;26.9
49583;BME280;36329;48.816;44.624;2023-04-01T10:31:42;101170;;;18.1;26.6
49583;BME280;36329;48.816;44.624;2023-04-01T10:38:36;101171;;;18;26
49583;BME280;36329;48.816;44.624;2023-04-01T10:41:55;101160;;;18.1;27
49583;BME280;36329;48.816;44.624;2023-04-01T10:45:21;101151;;;17.4;27.4
49583;BME280;36329;48.816;44.624;2023-04-01T10:48:51;101145;;;16.8;28.1
49583;BME280;36329;48.816;44.624;2023-04-01T10:52:15;101155;;;17;28.2
49583;BME280;36329;48.816;44.624;2023-04-01T10:55:34;101148;;;16.6;28.8
49583;BME280;36329;48.816;44.624;2023-04-01T10:58:49;101149;;;16.8;28.2
49583;BME280;36329;48.816;44.624;2023-04-01T11:05:51;101134;;;17.8;28.8
49583;BME280;36329;48.816;44.624;2023-04-01T11:09:11;101140;;;18;27.6
49583;BME280;36329;48.816;44.624;2023-04-01T11:12:42;101138;;;16.5;28.9
49583;BME280;36329;48.816;44.624;2023-04-01T11:16:01;101138;;;16.1;29.3
49583;BME280;36329;48.816;44.624;2023-04-01T11:19:22;101140;;;16.5;29.4
49583;BME280;36329;48.816;44.624;2023-04-01T11:22:39;101131;;;17;29
49583;BME280;36329;48.816;44.624;2023-04-01T11:25:55;101137;;;17;29
49583;BME280;36329;48.816;44.624;2023-04-01T11:29:24;101130;;;17;28.1
49583;BME280;36329;48.816;44.624;2023-04-01T11:32:38;101128;;;17;30.1
49583;BME280;36329;48.816;44.624;2023-04-01T11:35:50;101134;;;16.6;29.4
49583;BME280;36329;48.816;44.624;2023-04-01T11:39:01;101134;;;16.1;29.4
49583;BME280;36329;48.816;44.624;2023-04-01T11:42:14;101134;;;16.3;30.6
49583;BME280;36329;48.816;44.624;2023-04-01T11:45:25;101132;;;16.2;30.6
49583;BME280;36329;48.816;44.624;2023-04-01T11:48:40;101127;;;16;31.7
49583;BME280;36329;48.816;44.624;2023-04-01T11:51:54;101119;;;16.4;30.2
49583;BME280;36329;48.816;44.624;2023-04-01T11:55:06;101119;;;15.9;29.4
49583;BME280;36329;48.816;44.624;2023-04-01T11:58:21;101116;;;16;30.3
49583;BME280;36329;48.816;44.624;2023-04-01T12:01:30;101111;;;15.9;28.7
49583;BME280;36329;48.816;44.624;2023-04-01T12:04:55;101106;;;15.8;29.5
49583;BME280;36329;48.816;44.624;2023-04-01T12:08:09;101100;;;15.6;30.1
49583;BME280;36329;48.816;44.624;2023-04-01T12:11:19;101099;;;16;29.8
49583;BME280;36329;48.816;44.624;2023-04-01T12:14:32;101095;;;16.1;29.8
49583;BME280;36329;48.816;44.624;2023-04-01T12:17:43;101089;;;16;28.3
49583;BME280;36329;48.816;44.624;2023-04-01T12:20:50;101089;;;15.6;29.2
49583;BME280;36329;48.816;44.624;2023-04-01T12:24:06;101087;;;15.5;30.6
49583;BME280;36329;48.816;44.624;2023-04-01T12:27:27;101086;;;15.8;30.6
49583;BME280;36329;48.816;44.624;2023-04-01T12:30:37;101085;;;15.9;30.3
49583;BME280;36329;48.816;44.624;2023-04-01T12:33:48;101083;;;15.9;31.3
49583;BME280;36329;48.816;44.624;2023-04-01T12:36:59;101085;;;15.9;31
49583;BME280;36329;48.816;44.624;2023-04-01T12:40:18;101087;;;15.9;29.9
49583;BME280;36329;48.816;44.624;2023-04-01T12:47:18;101084;;;15.7;30.7
49583;BME280;36329;48.816;44.624;2023-04-01T12:50:27;101073;;;15.5;30.9
49583;BME280;36329;48.816;44.624;2023-04-01T12:53:45;101065;;;15.5;30.8
49583;BME280;36329;48.816;44.624;2023-04-01T12:57:02;101067;;;15.6;31.5
49583;BME280;36329;48.816;44.624;2023-04-01T13:00:15;101059;;;15.6;31.9
49583;BME280;36329;48.816;44.624;2023-04-01T13:03:37;101058;;;15.3;32
49583;BME280;36329;48.816;44.624;2023-04-01T13:06:51;101064;;;14.9;33.1
49583;BME280;36329;48.816;44.624;2023-04-01T13:10:05;101059;;;14.9;33.5
49583;BME280;36329;48.816;44.624;2023-04-01T13:13:18;101056;;;15;33.4
49583;BME280;36329;48.816;44.624;2023-04-01T13:16:25;101066;;;14.9;33.3
49583;BME280;36329;48.816;44.624;2023-04-01T13:19:33;101062;;;14.6;33.5
49583;BME280;36329;48.816;44.624;2023-04-01T13:22:48;101063;;;14.6;33.3
49583;BME280;36329;48.816;44.624;2023-04-01T13:26:00;101067;;;14.6;34
49583;BME280;36329;48.816;44.624;2023-04-01T13:29:12;101069;;;14.7;33.8
49583;BME280;36329;48.816;44.624;2023-04-01T13:32:22;101072;;;14.6;33.6
49583;BME280;36329;48.816;44.624;2023-04-01T13:35:35;101075;;;14.4;33.4
49583;BME280;36329;48.816;44.624;2023-04-01T13:39:09;101071;;;14.5;33.3
49583;BME280;36329;48.816;44.624;2023-04-01T13:42:18;101076;;;14.2;33.8
49583;BME280;36329;48.816;44.624;2023-04-01T13:45:26;101067;;;14;33.3
49583;BME280;36329;48.816;44.624;2023-04-01T13:48:55;101077;;;13.9;34.2
49583;BME280;36329;48.816;44.624;2023-04-01T13:52:22;101075;;;13.9;34.6
49583;BME280;36329;48.816;44.624;2023-04-01T13:55:36;101076;;;14.1;34.5
49583;BME280;36329;48.816;44.624;2023-04-01T13:58:50;101071;;;14.1;34.1
49583;BME280;36329;48.816;44.624;2023-04-01T14:02:17;101076;;;13.9;34.1
49583;BME280;36329;48.816;44.624;2023-04-01T14:05:34;101071;;;14;34.1
49583;BME280;36329;48.816;44.624;2023-04-01T14:08:51;101076;;;14.1;34.1
49583;BME280;36329;48.816;44.624;2023-04-01T14:12:04;101083;;;14;33.8
49583;BME280;36329;48.816;44.624;2023-04-01T14:15:22;101084;;;13.9;34.6
49583;BME280;36329;48.816;44.624;2023-04-01T14:18:34;101087;;;13.9;34.3
49583;BME280;36329;48.816;44.624;2023-04-01T14:21:43;101083;;;13.9;34.1
49583;BME280;36329;48.816;44.624;2023-04-01T14:24:58;101083;;;13.9;34.8
49583;BME280;36329;48.816;44.624;2023-04-01T14:28:11;101089;;;13.9;32.7
49583;BME280;36329;48.816;44.624;2023-04-01T14:31:27;101090;;;13.8;33.7
49583;BME280;36329;48.816;44.624;2023-04-01T14:34:40;101090;;;13.9;33.7
49583;BME280;36329;48.816;44.624;2023-04-01T14:37:58;101093;;;13.8;33.6
49583;BME280;36329;48.816;44.624;2023-04-01T14:41:10;101095;;;13.6;33.4
49583;BME280;36329;48.816;44.624;2023-04-01T14:44:22;101099;;;13.7;34
49583;BME280;36329;48.816;44.624;2023-04-01T14:47:34;101098;;;13.5;34.7
49583;BME280;36329;48.816;44.624;2023-04-01T14:50:43;101099;;;13.6;34.7
49583;BME280;36329;48.816;44.624;2023-04-01T14:53:56;101092;;;13.6;34
49583;BME280;36329;48.816;44.624;2023-04-01T14:57:09;101095;;;13.5;34.5
49583;BME280;36329;48.816;44.624;2023-04-01T15:00:14;101098;;;13.6;35.2
49583;BME280;36329;48.816;44.624;2023-04-01T15:03:20;101100;;;13.5;35
49583;BME280;36329;48.816;44.624;2023-04-01T15:06:35;101102;;;13.6;35.3
49583;BME280;36329;48.816;44.624;2023-04-01T15:09:45;101114;;;13.6;34.3
49583;BME280;36329;48.816;44.624;2023-04-01T15:12:58;101118;;;13.4;35
49583;BME280;36329;48.816;44.624;2023-04-01T15:16:11;101122;;;13.4;35
49583;BME280;36329;48.816;44.624;2023-04-01T15:19:24;101125;;;13.4;35.9
49583;BME280;36329;48.816;44.624;2023-04-01T15:22:43;101128;;;13.3;35.7
49583;BME280;36329;48.816;44.624;2023-04-01T15:26:07;101135;;;13.1;36.9
49583;BME280;36329;48.816;44.624;2023-04-01T15:29:26;101136;;;13.1;37.1
49583;BME280;36329;48.816;44.624;2023-04-01T15:32:43;101142;;;13;36.8
49583;BME280;36329;48.816;44.624;2023-04-01T15:35:52;101135;;;13.1;38
49583;BME280;36329;48.816;44.624;2023-04-01T15:39:03;101137;;;13.1;37.7
49583;BME280;36329;48.816;44.624;2023-04-01T15:42:19;101146;;;13;38.4
49583;BME280;36329;48.816;44.624;2023-04-01T15:45:31;101144;;;13;38.5
49583;BME280;36329;48.816;44.624;2023-04-01T15:48:46;101148;;;13;38.4
49583;BME280;36329;48.816;44.624;2023-04-01T15:51:58;101148;;;13;38.2
49583;BME280;36329;48.816;44.624;2023-04-01T15:55:14;101147;;;12.9;38.9
49583;BME280;36329;48.816;44.624;2023-04-01T15:58:31;101144;;;12.7;38.9
49583;BME280;36329;48.816;44.624;2023-04-01T16:01:44;101143;;;12.6;39.1
49583;BME280;36329;48.816;44.624;2023-04-01T16:04:54;101149;;;12.4;39
49583;BME280;36329;48.816;44.624;2023-04-01T16:08:08;101155;;;12.5;38.7
49583;BME280;36329;48.816;44.624;2023-04-01T16:11:18;101151;;;12.4;39.6
49583;BME280;36329;48.816;44.624;2023-04-01T16:14:29;101153;;;12.5;39.1
49583;BME280;36329;48.816;44.624;2023-04-01T16:17:48;101162;;;12.5;39.7
49583;BME280;36329;48.816;44.624;2023-04-01T16:21:00;101159;;;12.6;40.3
49583;BME280;36329;48.816;44.624;2023-04-01T16:24:12;101159;;;12.5;39.5
49583;BME280;36329;48.816;44.624;2023-04-01T16:27:24;101168;;;12.3;39.3
49583;BME280;36329;48.816;44.624;2023-04-01T16:30:36;101167;;;12.3;40
49583;BME280;36329;48.816;44.624;2023-04-01T16:33:45;101162;;;12.3;40
49583;BME280;36329;48.816;44.624;2023-04-01T16:36:53;101163;;;12.3;40.5
49583;BME280;36329;48.816;44.624;2023-04-01T16:40:02;101164;;;12.3;40.3
49583;BME280;36329;48.816;44.624;2023-04-01T16:43:16;101167;;;12.2;40.9
49583;BME280;36329;48.816;44.624;2023-04-01T16:46:29;101164;;;12.2;41.2
49583;BME280;36329;48.816;44.624;2023-04-01T16:49:37;101159;;;12.1;41.1
49583;BME280;36329;48.816;44.624;2023-04-01T16:52:51;101168;;;12;42.3
49583;BME280;36329;48.816;44.624;2023-04-01T16:56:04;101165;;;11.9;42.8
49583;BME280;36329;48.816;44.624;2023-04-01T16:59:15;101167;;;12;42.5
49583;BME280;36329;48.816;44.624;2023-04-01T17:02:23;101166;;;12;42.8
49583;BME280;36329;48.816;44.624;2023-04-01T17:05:38;101174;;;12;42.5
49583;BME280;36329;48.816;44.624;2023-04-01T17:08:52;101179;;;12.1;43.6
49583;BME280;36329;48.816;44.624;2023-04-01T17:12:04;101179;;;12.1;42.7
49583;BME280;36329;48.816;44.624;2023-04-01T17:15:20;101176;;;12.1;43.2
49583;BME280;36329;48.816;44.624;2023-04-01T17:18:29;101177;;;12;43.7
49583;BME280;36329;48.816;44.624;2023-04-01T17:21:47;101173;;;12;43.4
49583;BME280;36329;48.816;44.624;2023-04-01T17:25:02;101170;;;12;43.3
49583;BME280;36329;48.816;44.624;2023-04-01T17:28:19;101167;;;11.7;43.5
49583;BME280;36329;48.816;44.624;2023-04-01T17:31:34;101162;;;11.6;43.8
49583;BME280;36329;48.816;44.624;2023-04-01T17:34:46;101160;;;11.6;44.5
49583;BME280;36329;48.816;44.624;2023-04-01T17:38:04;101161;;;11.6;45
49583;BME280;36329;48.816;44.624;2023-04-01T17:41:15;101161;;;11.5;45.2
49583;BME280;36329;48.816;44.624;2023-04-01T17:44:28;101156;;;11.5;45.4
49583;BME280;36329;48.816;44.624;2023-04-01T17:47:41;101152;;;11.4;45.6
49583;BME280;36329;48.816;44.624;2023-04-01T17:50:53;101155;;;11.3;45
49583;BME280;36329;48.816;44.624;2023-04-01T17:54:04;101149;;;11.2;46.3
49583;BME280;36329;48.816;44.624;2023-04-01T17:57:24;101152;;;11.2;45.7